sensor_id;sensor_type;location;lat;lon;timestamp;pressure;altitude;pressure_sealevel;temperature;humidity
35443;BME280;21561;55.654;37.592;2023-05-10T00:00:03;99861.91;;;8.90;36.00
35443;BME280;21561;55.654;37.592;2023-05-10T00:02:31;99865.25;;;8.74;35.78
35443;BME280;21561;55.654;37.592;2023-05-10T00:04:58;99888.50;;;8.63;35.19
35443;BME280;21561;55.654;37.592;2023-05-10T00:07:24;99880.75;;;8.60;34.71
35443;BME280;21561;55.654;37.592;2023-05-10T00:09:51;99851.50;;;8.79;33.94
35443;BME280;21561;55.654;37.592;2023-05-10T00:12:18;99834.31;;;8.95;33.86
35443;BME280;21561;55.654;37.592;2023-05-10T00:14:44;99804.13;;;9.14;32.60
35443;BME280;21561;55.654;37.592;2023-05-10T00:17:11;99791.19;;;9.34;32.71
35443;BME280;21561;55.654;37.592;2023-05-10T00:19:38;99763.56;;;9.40;31.90
35443;BME280;21561;55.654;37.592;2023-05-10T00:22:04;99756.66;;;9.48;31.85
35443;BME280;21561;55.654;37.592;2023-05-10T00:24:34;99735.06;;;9.53;31.35
35443;BME280;21561;55.654;37.592;2023-05-10T00:27:00;99733.34;;;9.57;31.38
35443;BME280;21561;55.654;37.592;2023-05-10T00:29:27;99719.50;;;9.58;31.45
35443;BME280;21561;55.654;37.592;2023-05-10T00:31:54;99714.31;;;9.61;31.25
35443;BME280;21561;55.654;37.592;2023-05-10T00:34:21;99724.69;;;9.64;31.63
35443;BME280;21561;55.654;37.592;2023-05-10T00:36:48;99734.16;;;9.67;31.75
35443;BME280;21561;55.654;37.592;2023-05-10T00:39:14;99764.44;;;9.60;32.73
35443;BME280;21561;55.654;37.592;2023-05-10T00:41:41;99761.84;;;9.48;32.52
35443;BME280;21561;55.654;37.592;2023-05-10T00:44:07;99752.38;;;9.42;31.96
35443;BME280;21561;55.654;37.592;2023-05-10T00:46:34;99754.94;;;9.50;32.20
35443;BME280;21561;55.654;37.592;2023-05-10T00:49:01;99749.75;;;9.53;32.34
35443;BME280;21561;55.654;37.592;2023-05-10T00:51:28;99742.84;;;9.52;31.85
35443;BME280;21561;55.654;37.592;2023-05-10T00:53:54;99750.63;;;9.55;32.16
35443;BME280;21561;55.654;37.592;2023-05-10T00:56:22;99751.47;;;9.54;32.29
35443;BME280;21561;55.654;37.592;2023-05-10T00:58:50;99760.13;;;9.38;32.63
35443;BME280;21561;55.654;37.592;2023-05-10T01:01:17;99782.56;;;9.14;33.94
35443;BME280;21561;55.654;37.592;2023-05-10T01:03:43;99803.25;;;8.95;34.17
35443;BME280;21561;55.654;37.592;2023-05-10T01:06:10;99821.28;;;8.75;34.06
35443;BME280;21561;55.654;37.592;2023-05-10T01:08:37;99822.09;;;8.57;34.27
35443;BME280;21561;55.654;37.592;2023-05-10T01:11:04;99827.22;;;8.45;34.24
35443;BME280;21561;55.654;37.592;2023-05-10T01:13:32;99851.28;;;8.38;34.93
35443;BME280;21561;55.654;37.592;2023-05-10T01:15:59;99882.31;;;8.35;35.18
35443;BME280;21561;55.654;37.592;2023-05-10T01:18:29;99880.69;;;8.49;36.53
35443;BME280;21561;55.654;37.592;2023-05-10T01:21:01;99875.53;;;8.55;35.28
35443;BME280;21561;55.654;37.592;2023-05-10T01:36:40;99839.53;;;9.14;33.64
35443;BME280;21561;55.654;37.592;2023-05-10T01:41:55;99839.50;;;8.95;33.92
35443;BME280;21561;55.654;37.592;2023-05-10T01:44:35;99838.59;;;8.96;33.83
35443;BME280;21561;55.654;37.592;2023-05-10T01:47:11;99833.44;;;9.04;33.52
35443;BME280;21561;55.654;37.592;2023-05-10T01:49:43;99834.34;;;9.17;33.53
35443;BME280;21561;55.654;37.592;2023-05-10T01:52:14;99829.16;;;9.20;33.63
35443;BME280;21561;55.654;37.592;2023-05-10T01:54:43;99811.03;;;9.22;33.03
35443;BME280;21561;55.654;37.592;2023-05-10T01:57:11;99789.47;;;9.23;32.48
35443;BME280;21561;55.654;37.592;2023-05-10T01:59:40;99787.72;;;9.29;32.34
35443;BME280;21561;55.654;37.592;2023-05-10T02:02:09;99777.38;;;9.32;32.40
35443;BME280;21561;55.654;37.592;2023-05-10T02:04:40;99775.66;;;9.36;32.38
35443;BME280;21561;55.654;37.592;2023-05-10T02:07:07;99771.34;;;9.41;32.52
35443;BME280;21561;55.654;37.592;2023-05-10T02:09:34;99765.31;;;9.41;32.42
35443;BME280;21561;55.654;37.592;2023-05-10T02:12:03;99767.03;;;9.45;32.45
35443;BME280;21561;55.654;37.592;2023-05-10T02:14:32;99758.38;;;9.40;32.08
35443;BME280;21561;55.654;37.592;2023-05-10T02:16:59;99773.94;;;9.43;32.69
35443;BME280;21561;55.654;37.592;2023-05-10T02:19:27;99773.94;;;9.43;32.63
35443;BME280;21561;55.654;37.592;2023-05-10T02:22:15;99781.72;;;9.46;33.02
35443;BME280;21561;55.654;37.592;2023-05-10T02:24:42;99777.38;;;9.45;32.80
35443;BME280;21561;55.654;37.592;2023-05-10T02:27:10;99776.53;;;9.44;32.83
35443;BME280;21561;55.654;37.592;2023-05-10T02:29:37;99796.38;;;9.31;33.36
35443;BME280;21561;55.654;37.592;2023-05-10T02:32:04;99782.56;;;9.32;33.11
35443;BME280;21561;55.654;37.592;2023-05-10T02:34:31;99782.56;;;9.35;32.83
35443;BME280;21561;55.654;37.592;2023-05-10T02:36:59;99771.31;;;9.36;32.42
35443;BME280;21561;55.654;37.592;2023-05-10T02:39:26;99767.03;;;9.39;32.34
35443;BME280;21561;55.654;37.592;2023-05-10T02:41:54;99768.75;;;9.41;32.68
35443;BME280;21561;55.654;37.592;2023-05-10T02:44:23;99760.97;;;9.40;32.47
35443;BME280;21561;55.654;37.592;2023-05-10T02:46:50;99768.75;;;9.43;32.35
35443;BME280;21561;55.654;37.592;2023-05-10T02:49:16;99751.50;;;9.48;31.99
35443;BME280;21561;55.654;37.592;2023-05-10T02:51:46;99748.88;;;9.57;32.08
35443;BME280;21561;55.654;37.592;2023-05-10T02:54:20;99752.31;;;9.59;32.31
35443;BME280;21561;55.654;37.592;2023-05-10T02:56:51;99748.84;;;9.62;32.05
35443;BME280;21561;55.654;37.592;2023-05-10T02:59:20;99749.75;;;9.61;32.32
35443;BME280;21561;55.654;37.592;2023-05-10T03:01:47;99742.81;;;9.58;32.21
35443;BME280;21561;55.654;37.592;2023-05-10T03:04:13;99743.69;;;9.54;32.04
35443;BME280;21561;55.654;37.592;2023-05-10T03:06:41;99741.09;;;9.54;32.31
35443;BME280;21561;55.654;37.592;2023-05-10T03:09:08;99742.84;;;9.55;32.33
35443;BME280;21561;55.654;37.592;2023-05-10T03:11:53;99735.94;;;9.54;31.93
35443;BME280;21561;55.654;37.592;2023-05-10T03:17:01;99742.81;;;9.63;32.12
35443;BME280;21561;55.654;37.592;2023-05-10T03:19:32;99745.41;;;9.61;31.98
35443;BME280;21561;55.654;37.592;2023-05-10T03:22:04;99734.16;;;9.65;32.04
35443;BME280;21561;55.654;37.592;2023-05-10T03:24:35;99726.41;;;9.68;32.00
35443;BME280;21561;55.654;37.592;2023-05-10T03:27:03;99729.00;;;9.71;31.83
35443;BME280;21561;55.654;37.592;2023-05-10T03:29:30;99725.53;;;9.72;31.65
35443;BME280;21561;55.654;37.592;2023-05-10T03:31:58;99711.72;;;9.77;31.74
35443;BME280;21561;55.654;37.592;2023-05-10T03:34:25;99718.59;;;9.81;31.92
35443;BME280;21561;55.654;37.592;2023-05-10T03:36:52;99719.44;;;9.84;31.86
35443;BME280;21561;55.654;37.592;2023-05-10T03:39:19;99725.53;;;9.82;32.02
35443;BME280;21561;55.654;37.592;2023-05-10T03:41:46;99731.56;;;9.79;31.93
35443;BME280;21561;55.654;37.592;2023-05-10T03:44:13;99721.19;;;9.81;31.63
35443;BME280;21561;55.654;37.592;2023-05-10T03:46:39;99729.81;;;9.83;31.97
35443;BME280;21561;55.654;37.592;2023-05-10T03:49:06;99728.94;;;9.87;32.11
35443;BME280;21561;55.654;37.592;2023-05-10T03:51:33;99726.34;;;9.87;32.03
35443;BME280;21561;55.654;37.592;2023-05-10T03:53:59;99733.25;;;9.89;32.10
35443;BME280;21561;55.654;37.592;2023-05-10T03:56:26;99721.16;;;9.93;31.88
35443;BME280;21561;55.654;37.592;2023-05-10T03:58:52;99720.28;;;9.96;31.71
35443;BME280;21561;55.654;37.592;2023-05-10T04:01:19;99715.94;;;9.99;31.75
35443;BME280;21561;55.654;37.592;2023-05-10T04:03:46;99708.16;;;9.99;31.61
35443;BME280;21561;55.654;37.592;2023-05-10T04:06:12;99716.78;;;10.07;31.62
35443;BME280;21561;55.654;37.592;2023-05-10T04:08:39;99709.84;;;10.08;31.71
35443;BME280;21561;55.654;37.592;2023-05-10T04:11:07;99707.28;;;10.06;31.80
35443;BME280;21561;55.654;37.592;2023-05-10T04:13:33;99700.34;;;10.08;31.62
35443;BME280;21561;55.654;37.592;2023-05-10T04:16:01;99694.28;;;10.12;31.54
35443;BME280;21561;55.654;37.592;2023-05-10T04:18:27;99697.72;;;10.18;31.53
35443;BME280;21561;55.654;37.592;2023-05-10T04:20:54;99693.34;;;10.26;31.61
35443;BME280;21561;55.654;37.592;2023-05-10T04:23:21;99692.47;;;10.33;31.67
35443;BME280;21561;55.654;37.592;2023-05-10T04:25:47;99701.97;;;10.37;31.82
35443;BME280;21561;55.654;37.592;2023-05-10T04:28:14;99703.63;;;10.49;31.54
35443;BME280;21561;55.654;37.592;2023-05-10T04:30:41;99688.06;;;10.50;31.52
35443;BME280;21561;55.654;37.592;2023-05-10T04:33:07;99682.03;;;10.52;31.43
35443;BME280;21561;55.654;37.592;2023-05-10T04:35:34;99683.72;;;10.56;31.30
35443;BME280;21561;55.654;37.592;2023-05-10T04:38:01;99680.22;;;10.60;31.25
35443;BME280;21561;55.654;37.592;2023-05-10T04:40:27;99669.00;;;10.56;31.07
35443;BME280;21561;55.654;37.592;2023-05-10T04:42:54;99657.75;;;10.59;30.87
35443;BME280;21561;55.654;37.592;2023-05-10T04:45:21;99662.91;;;10.65;31.32
35443;BME280;21561;55.654;37.592;2023-05-10T04:47:47;99655.94;;;10.68;31.04
35443;BME280;21561;55.654;37.592;2023-05-10T04:50:14;99661.91;;;10.80;31.16
35443;BME280;21561;55.654;37.592;2023-05-10T04:52:41;99660.13;;;10.89;31.04
35443;BME280;21561;55.654;37.592;2023-05-10T04:55:08;99656.69;;;10.86;30.65
35443;BME280;21561;55.654;37.592;2023-05-10T04:57:36;99650.56;;;10.92;30.99
35443;BME280;21561;55.654;37.592;2023-05-10T05:00:03;99651.41;;;10.98;30.83
35443;BME280;21561;55.654;37.592;2023-05-10T05:02:30;99653.91;;;11.06;31.07
35443;BME280;21561;55.654;37.592;2023-05-10T05:04:57;99656.50;;;11.07;30.66
35443;BME280;21561;55.654;37.592;2023-05-10T05:07:26;99652.97;;;11.13;30.77
35443;BME280;21561;55.654;37.592;2023-05-10T05:09:59;99650.38;;;11.13;30.79
35443;BME280;21561;55.654;37.592;2023-05-10T05:12:25;99632.25;;;11.08;30.62
35443;BME280;21561;55.654;37.592;2023-05-10T05:14:52;99629.69;;;11.04;30.46
35443;BME280;21561;55.654;37.592;2023-05-10T05:17:18;99638.25;;;11.12;30.78
35443;BME280;21561;55.654;37.592;2023-05-10T05:19:45;99634.69;;;11.25;30.76
35443;BME280;21561;55.654;37.592;2023-05-10T05:22:11;99635.44;;;11.37;30.81
35443;BME280;21561;55.654;37.592;2023-05-10T05:24:38;99627.53;;;11.46;30.62
35443;BME280;21561;55.654;37.592;2023-05-10T05:27:05;99613.66;;;11.47;30.41
35443;BME280;21561;55.654;37.592;2023-05-10T05:29:32;99598.97;;;11.44;29.77
35443;BME280;21561;55.654;37.592;2023-05-10T05:31:58;99596.31;;;11.49;30.11
35443;BME280;21561;55.654;37.592;2023-05-10T05:34:25;99594.44;;;11.60;30.26
35443;BME280;21561;55.654;37.592;2023-05-10T05:36:52;99601.22;;;11.74;30.35
35443;BME280;21561;55.654;37.592;2023-05-10T05:39:18;99580.34;;;11.80;30.18
35443;BME280;21561;55.654;37.592;2023-05-10T05:41:45;99602.81;;;11.84;30.57
35443;BME280;21561;55.654;37.592;2023-05-10T05:44:12;99598.41;;;11.89;30.68
35443;BME280;21561;55.654;37.592;2023-05-10T05:46:39;99596.75;;;11.85;30.64
35443;BME280;21561;55.654;37.592;2023-05-10T05:49:06;99589.72;;;11.93;30.55
35443;BME280;21561;55.654;37.592;2023-05-10T05:51:32;99593.22;;;11.89;30.84
35443;BME280;21561;55.654;37.592;2023-05-10T05:53:59;99568.09;;;11.91;29.75
35443;BME280;21561;55.654;37.592;2023-05-10T05:56:25;99568.91;;;11.95;30.16
35443;BME280;21561;55.654;37.592;2023-05-10T05:58:52;99567.03;;;12.05;30.02
35443;BME280;21561;55.654;37.592;2023-05-10T06:01:19;99572.06;;;12.17;30.20
35443;BME280;21561;55.654;37.592;2023-05-10T06:03:45;99565.00;;;12.25;30.14
35443;BME280;21561;55.654;37.592;2023-05-10T06:06:15;99551.91;;;12.31;29.74
35443;BME280;21561;55.654;37.592;2023-05-10T06:08:41;99534.47;;;12.36;29.51
35443;BME280;21561;55.654;37.592;2023-05-10T06:11:08;99541.22;;;12.47;29.74
35443;BME280;21561;55.654;37.592;2023-05-10T06:13:35;99529.84;;;12.52;29.25
35443;BME280;21561;55.654;37.592;2023-05-10T06:16:04;99520.16;;;12.62;29.24
35443;BME280;21561;55.654;37.592;2023-05-10T06:18:31;99525.16;;;12.74;29.27
35443;BME280;21561;55.654;37.592;2023-05-10T06:20:57;99522.47;;;12.77;29.65
35443;BME280;21561;55.654;37.592;2023-05-10T06:23:24;99526.69;;;12.85;29.66
35443;BME280;21561;55.654;37.592;2023-05-10T06:25:51;99540.31;;;12.99;29.88
35443;BME280;21561;55.654;37.592;2023-05-10T06:28:18;99536.47;;;13.18;29.93
35443;BME280;21561;55.654;37.592;2023-05-10T06:30:45;99511.97;;;13.29;29.05
35443;BME280;21561;55.654;37.592;2023-05-10T06:33:11;99517.06;;;13.35;29.75
35443;BME280;21561;55.654;37.592;2023-05-10T06:35:38;99478.94;;;13.31;28.75
35443;BME280;21561;55.654;37.592;2023-05-10T06:38:05;99449.56;;;13.23;28.43
35443;BME280;21561;55.654;37.592;2023-05-10T06:40:31;99479.88;;;13.27;28.94
35443;BME280;21561;55.654;37.592;2023-05-10T06:42:59;99460.69;;;13.31;28.26
35443;BME280;21561;55.654;37.592;2023-05-10T06:45:25;99411.22;;;13.28;27.85
35443;BME280;21561;55.654;37.592;2023-05-10T06:47:52;99394.94;;;13.18;26.96
35443;BME280;21561;55.654;37.592;2023-05-10T06:50:19;99382.19;;;13.04;27.06
35443;BME280;21561;55.654;37.592;2023-05-10T06:52:45;99393.94;;;13.24;27.79
35443;BME280;21561;55.654;37.592;2023-05-10T06:55:12;99393.75;;;13.33;27.78
35443;BME280;21561;55.654;37.592;2023-05-10T06:57:39;99388.22;;;13.48;27.72
35443;BME280;21561;55.654;37.592;2023-05-10T07:00:06;99379.88;;;13.70;27.79
35443;BME280;21561;55.654;37.592;2023-05-10T07:02:33;99373.47;;;13.83;26.74
35443;BME280;21561;55.654;37.592;2023-05-10T07:05:00;99337.06;;;13.80;26.62
35443;BME280;21561;55.654;37.592;2023-05-10T07:07:29;99286.03;;;13.70;25.25
35443;BME280;21561;55.654;37.592;2023-05-10T07:09:56;99276.72;;;13.60;25.40
35443;BME280;21561;55.654;37.592;2023-05-10T07:12:24;99285.44;;;13.59;25.59
35443;BME280;21561;55.654;37.592;2023-05-10T07:14:50;99291.97;;;13.75;26.71
35443;BME280;21561;55.654;37.592;2023-05-10T07:17:17;99285.75;;;13.81;26.08
35443;BME280;21561;55.654;37.592;2023-05-10T07:19:44;99279.56;;;13.83;25.24
35443;BME280;21561;55.654;37.592;2023-05-10T07:22:11;99258.88;;;13.77;25.79
35443;BME280;21561;55.654;37.592;2023-05-10T07:24:37;99246.72;;;13.76;25.56
35443;BME280;21561;55.654;37.592;2023-05-10T07:27:04;99248.28;;;13.83;25.75
35443;BME280;21561;55.654;37.592;2023-05-10T07:29:30;99232.56;;;13.86;25.52
35443;BME280;21561;55.654;37.592;2023-05-10T07:31:57;99230.69;;;13.91;26.08
35443;BME280;21561;55.654;37.592;2023-05-10T07:34:24;99216.72;;;13.92;25.42
35443;BME280;21561;55.654;37.592;2023-05-10T07:36:51;99232.88;;;14.07;26.09
35443;BME280;21561;55.654;37.592;2023-05-10T07:39:18;99206.72;;;14.08;25.34
35443;BME280;21561;55.654;37.592;2023-05-10T07:41:52;99200.50;;;14.14;24.85
35443;BME280;21561;55.654;37.592;2023-05-10T07:44:19;99188.06;;;14.22;24.93
35443;BME280;21561;55.654;37.592;2023-05-10T07:46:47;99180.78;;;14.33;24.86
35443;BME280;21561;55.654;37.592;2023-05-10T07:49:14;99195.97;;;14.49;25.09
35443;BME280;21561;55.654;37.592;2023-05-10T07:51:41;99178.28;;;14.59;25.04
35443;BME280;21561;55.654;37.592;2023-05-10T07:54:08;99186.38;;;14.79;24.69
35443;BME280;21561;55.654;37.592;2023-05-10T07:56:35;99170.28;;;14.93;24.77
35443;BME280;21561;55.654;37.592;2023-05-10T07:59:02;99192.38;;;15.10;25.86
35443;BME280;21561;55.654;37.592;2023-05-10T08:01:35;99161.91;;;15.08;25.23
35443;BME280;21561;55.654;37.592;2023-05-10T08:04:02;99139.31;;;15.07;24.53
35443;BME280;21561;55.654;37.592;2023-05-10T08:06:30;99139.47;;;15.03;24.63
35443;BME280;21561;55.654;37.592;2023-05-10T08:08:57;99145.66;;;15.00;24.60
35443;BME280;21561;55.654;37.592;2023-05-10T08:11:23;99121.44;;;14.95;24.38
35443;BME280;21561;55.654;37.592;2023-05-10T08:13:51;99144.91;;;14.97;25.50
35443;BME280;21561;55.654;37.592;2023-05-10T08:16:17;99103.06;;;14.72;24.18
35443;BME280;21561;55.654;37.592;2023-05-10T08:18:45;99108.50;;;14.64;25.43
35443;BME280;21561;55.654;37.592;2023-05-10T08:21:13;99124.19;;;14.64;25.56
35443;BME280;21561;55.654;37.592;2023-05-10T08:23:40;99128.97;;;14.78;25.21
35443;BME280;21561;55.654;37.592;2023-05-10T08:26:07;99113.25;;;14.79;25.44
35443;BME280;21561;55.654;37.592;2023-05-10T08:28:34;99094.31;;;14.73;24.33
35443;BME280;21561;55.654;37.592;2023-05-10T08:31:00;99076.06;;;14.71;24.14
35443;BME280;21561;55.654;37.592;2023-05-10T08:33:27;99065.41;;;14.79;24.66
35443;BME280;21561;55.654;37.592;2023-05-10T08:35:54;99102.34;;;14.93;25.47
35443;BME280;21561;55.654;37.592;2023-05-10T08:38:20;99100.22;;;15.04;25.60
35443;BME280;21561;55.654;37.592;2023-05-10T08:40:47;99117.41;;;15.12;25.85
35443;BME280;21561;55.654;37.592;2023-05-10T08:43:15;99108.50;;;15.17;25.73
35443;BME280;21561;55.654;37.592;2023-05-10T08:45:43;99112.69;;;15.21;25.72
35443;BME280;21561;55.654;37.592;2023-05-10T08:48:11;99111.63;;;15.27;25.13
35443;BME280;21561;55.654;37.592;2023-05-10T08:50:39;99111.44;;;15.33;25.66
35443;BME280;21561;55.654;37.592;2023-05-10T08:53:09;99088.34;;;15.44;25.46
35443;BME280;21561;55.654;37.592;2023-05-10T08:55:36;99050.88;;;15.45;23.49
35443;BME280;21561;55.654;37.592;2023-05-10T08:58:05;99072.47;;;15.51;25.30
35443;BME280;21561;55.654;37.592;2023-05-10T09:00:32;99076.31;;;15.64;25.11
35443;BME280;21561;55.654;37.592;2023-05-10T09:02:59;99046.44;;;15.48;23.84
35443;BME280;21561;55.654;37.592;2023-05-10T09:05:26;99037.91;;;15.42;24.66
35443;BME280;21561;55.654;37.592;2023-05-10T09:07:53;99037.25;;;15.36;24.89
35443;BME280;21561;55.654;37.592;2023-05-10T09:10:20;99012.31;;;15.27;24.19
35443;BME280;21561;55.654;37.592;2023-05-10T09:12:47;99009.13;;;15.19;23.93
35443;BME280;21561;55.654;37.592;2023-05-10T09:15:17;99019.59;;;15.19;24.66
35443;BME280;21561;55.654;37.592;2023-05-10T09:17:46;98970.97;;;15.15;23.48
35443;BME280;21561;55.654;37.592;2023-05-10T09:20:13;98969.47;;;15.07;24.10
35443;BME280;21561;55.654;37.592;2023-05-10T09:22:40;98996.22;;;15.14;24.66
35443;BME280;21561;55.654;37.592;2023-05-10T09:25:07;99021.72;;;15.33;25.04
35443;BME280;21561;55.654;37.592;2023-05-10T09:27:35;99028.66;;;15.56;24.95
35443;BME280;21561;55.654;37.592;2023-05-10T09:30:02;99022.69;;;15.77;24.70
35443;BME280;21561;55.654;37.592;2023-05-10T09:32:46;99020.72;;;15.82;24.72
35443;BME280;21561;55.654;37.592;2023-05-10T09:35:14;98970.69;;;15.92;23.25
35443;BME280;21561;55.654;37.592;2023-05-10T09:37:42;98985.09;;;16.02;24.58
35443;BME280;21561;55.654;37.592;2023-05-10T09:40:13;98966.09;;;16.19;24.20
35443;BME280;21561;55.654;37.592;2023-05-10T09:42:42;98962.16;;;16.29;23.30
35443;BME280;21561;55.654;37.592;2023-05-10T09:45:09;98922.31;;;16.43;23.70
35443;BME280;21561;55.654;37.592;2023-05-10T09:47:35;98934.00;;;16.56;23.91
35443;BME280;21561;55.654;37.592;2023-05-10T09:50:03;98911.75;;;16.65;23.47
35443;BME280;21561;55.654;37.592;2023-05-10T09:52:45;98922.31;;;16.84;24.14
35443;BME280;21561;55.654;37.592;2023-05-10T09:55:12;98942.88;;;16.93;23.94
35443;BME280;21561;55.654;37.592;2023-05-10T09:57:39;98949.28;;;17.07;24.32
35443;BME280;21561;55.654;37.592;2023-05-10T10:00:07;98913.31;;;17.10;23.42
35443;BME280;21561;55.654;37.592;2023-05-10T10:02:35;98919.66;;;17.05;24.04
35443;BME280;21561;55.654;37.592;2023-05-10T10:05:01;98941.19;;;17.11;24.14
35443;BME280;21561;55.654;37.592;2023-05-10T10:07:29;98852.66;;;17.18;22.36
35443;BME280;21561;55.654;37.592;2023-05-10T10:09:56;98890.91;;;17.22;23.91
35443;BME280;21561;55.654;37.592;2023-05-10T10:12:24;98907.91;;;17.32;24.32
35443;BME280;21561;55.654;37.592;2023-05-10T10:14:51;98907.84;;;17.34;23.74
35443;BME280;21561;55.654;37.592;2023-05-10T10:17:18;98906.06;;;17.34;24.26
35443;BME280;21561;55.654;37.592;2023-05-10T10:19:46;98801.25;;;17.69;21.69
35443;BME280;21561;55.654;37.592;2023-05-10T10:22:14;98801.50;;;18.50;22.66
35443;BME280;21561;55.654;37.592;2023-05-10T10:24:41;98832.34;;;19.12;23.23
35443;BME280;21561;55.654;37.592;2023-05-10T10:32:28;98752.50;;;23.12;21.36
35443;BME280;21561;55.654;37.592;2023-05-10T10:34:56;98699.34;;;23.86;21.02
35443;BME280;21561;55.654;37.592;2023-05-10T10:37:23;98700.78;;;23.90;21.36
35443;BME280;21561;55.654;37.592;2023-05-10T10:39:50;98673.88;;;23.72;20.94
35443;BME280;21561;55.654;37.592;2023-05-10T10:42:43;98683.84;;;23.46;21.95
35443;BME280;21561;55.654;37.592;2023-05-10T10:45:12;98575.72;;;23.17;19.60
35443;BME280;21561;55.654;37.592;2023-05-10T10:47:40;98586.78;;;22.62;20.76
35443;BME280;21561;55.654;37.592;2023-05-10T10:50:06;98469.84;;;21.36;18.55
35443;BME280;21561;55.654;37.592;2023-05-10T10:52:35;98471.16;;;20.12;18.95
35443;BME280;21561;55.654;37.592;2023-05-10T11:00:31;98583.16;;;19.17;21.18
35443;BME280;21561;55.654;37.592;2023-05-10T11:08:13;98563.38;;;18.18;20.33
35443;BME280;21561;55.654;37.592;2023-05-10T11:10:48;98586.69;;;18.08;21.14
35443;BME280;21561;55.654;37.592;2023-05-10T11:13:26;98585.28;;;17.85;21.53
35443;BME280;21561;55.654;37.592;2023-05-10T11:15:53;98593.66;;;17.75;21.54
35443;BME280;21561;55.654;37.592;2023-05-10T11:18:21;98599.50;;;17.81;21.61
35443;BME280;21561;55.654;37.592;2023-05-10T11:20:50;98623.94;;;17.99;22.08
35443;BME280;21561;55.654;37.592;2023-05-10T11:23:17;98623.78;;;18.18;21.41
35443;BME280;21561;55.654;37.592;2023-05-10T11:25:45;98642.25;;;18.32;21.85
35443;BME280;21561;55.654;37.592;2023-05-10T11:28:12;98637.50;;;18.55;22.05
35443;BME280;21561;55.654;37.592;2023-05-10T11:30:39;98640.47;;;18.64;22.07
35443;BME280;21561;55.654;37.592;2023-05-10T11:33:06;98635.63;;;18.57;21.89
35443;BME280;21561;55.654;37.592;2023-05-10T11:35:37;98639.38;;;18.53;22.10
35443;BME280;21561;55.654;37.592;2023-05-10T11:38:09;98627.06;;;18.69;21.47
35443;BME280;21561;55.654;37.592;2023-05-10T11:40:36;98610.69;;;18.96;21.50
35443;BME280;21561;55.654;37.592;2023-05-10T11:43:03;98608.13;;;19.24;21.51
35443;BME280;21561;55.654;37.592;2023-05-10T11:45:33;98604.06;;;19.49;21.53
35443;BME280;21561;55.654;37.592;2023-05-10T11:48:00;98595.59;;;19.73;21.75
35443;BME280;21561;55.654;37.592;2023-05-10T11:50:27;98614.63;;;19.78;21.62
35443;BME280;21561;55.654;37.592;2023-05-10T11:52:54;98606.22;;;19.71;21.97
35443;BME280;21561;55.654;37.592;2023-05-10T11:55:21;98596.34;;;19.46;22.09
35443;BME280;21561;55.654;37.592;2023-05-10T11:57:51;98569.41;;;19.12;21.35
35443;BME280;21561;55.654;37.592;2023-05-10T12:00:17;98611.22;;;18.86;22.15
35443;BME280;21561;55.654;37.592;2023-05-10T12:02:45;98606.91;;;18.85;21.91
35443;BME280;21561;55.654;37.592;2023-05-10T12:05:11;98605.16;;;18.54;21.07
35443;BME280;21561;55.654;37.592;2023-05-10T12:07:38;98594.56;;;18.24;22.15
35443;BME280;21561;55.654;37.592;2023-05-10T12:10:05;98597.31;;;17.89;21.79
35443;BME280;21561;55.654;37.592;2023-05-10T12:12:41;98611.66;;;17.66;22.39
35443;BME280;21561;55.654;37.592;2023-05-10T12:15:22;98612.13;;;17.56;22.11
35443;BME280;21561;55.654;37.592;2023-05-10T12:17:49;98623.66;;;17.36;22.63
35443;BME280;21561;55.654;37.592;2023-05-10T12:20:18;98623.34;;;17.25;22.42
35443;BME280;21561;55.654;37.592;2023-05-10T12:22:47;98627.16;;;17.20;22.35
35443;BME280;21561;55.654;37.592;2023-05-10T12:25:15;98634.00;;;17.22;22.87
35443;BME280;21561;55.654;37.592;2023-05-10T12:27:52;98638.63;;;17.34;22.55
35443;BME280;21561;55.654;37.592;2023-05-10T12:30:22;98651.72;;;17.52;22.58
35443;BME280;21561;55.654;37.592;2023-05-10T12:32:49;98653.84;;;17.79;22.80
35443;BME280;21561;55.654;37.592;2023-05-10T12:35:16;98645.13;;;18.11;22.47
35443;BME280;21561;55.654;37.592;2023-05-10T12:37:43;98655.66;;;18.43;22.61
35443;BME280;21561;55.654;37.592;2023-05-10T12:40:10;98615.66;;;18.54;22.06
35443;BME280;21561;55.654;37.592;2023-05-10T12:42:38;98609.31;;;18.26;21.89
35443;BME280;21561;55.654;37.592;2023-05-10T12:45:05;98614.94;;;17.87;22.44
35443;BME280;21561;55.654;37.592;2023-05-10T12:47:33;98625.34;;;17.55;22.59
35443;BME280;21561;55.654;37.592;2023-05-10T12:50:00;98638.97;;;17.44;22.88
35443;BME280;21561;55.654;37.592;2023-05-10T12:52:29;98651.97;;;17.12;23.15
35443;BME280;21561;55.654;37.592;2023-05-10T12:54:55;98663.44;;;17.10;23.29
35443;BME280;21561;55.654;37.592;2023-05-10T12:57:22;98675.31;;;17.00;23.18
35443;BME280;21561;55.654;37.592;2023-05-10T12:59:49;98679.47;;;17.04;23.18
35443;BME280;21561;55.654;37.592;2023-05-10T13:02:15;98675.84;;;17.06;23.39
35443;BME280;21561;55.654;37.592;2023-05-10T13:04:44;98688.72;;;17.11;23.52
35443;BME280;21561;55.654;37.592;2023-05-10T13:07:15;98695.50;;;17.15;23.40
35443;BME280;21561;55.654;37.592;2023-05-10T13:09:42;98700.47;;;17.21;23.56
35443;BME280;21561;55.654;37.592;2023-05-10T13:12:08;98697.75;;;17.23;23.57
35443;BME280;21561;55.654;37.592;2023-05-10T13:14:35;98702.00;;;17.25;23.87
35443;BME280;21561;55.654;37.592;2023-05-10T13:17:02;98708.94;;;17.26;23.78
35443;BME280;21561;55.654;37.592;2023-05-10T13:19:28;98704.75;;;17.05;23.81
35443;BME280;21561;55.654;37.592;2023-05-10T13:21:55;98707.41;;;16.67;24.09
35443;BME280;21561;55.654;37.592;2023-05-10T13:24:22;98730.69;;;16.35;24.66
35443;BME280;21561;55.654;37.592;2023-05-10T13:26:48;98756.25;;;16.09;24.61
35443;BME280;21561;55.654;37.592;2023-05-10T13:29:15;98767.53;;;15.91;24.99